sensor_id;sensor_type;location;lat;lon;timestamp;pressure;altitude;pressure_sealevel;temperature;humidity
10474;BME280;5284;50.446;7.904;2022-10-16T00:03:21;98074.91;;;14.08;100.00
10474;BME280;5284;50.446;7.904;2022-10-16T00:08:31;98071.34;;;14.08;100.00
10474;BME280;5284;50.446;7.904;2022-10-16T00:13:35;98079.72;;;14.05;100.00
10474;BME280;5284;50.446;7.904;2022-10-16T00:18:39;98082.06;;;14.00;100.00
10474;BME280;5284;50.446;7.904;2022-10-16T00:23:43;98079.19;;;13.93;100.00
10474;BME280;5284;50.446;7.904;2022-10-16T00:28:47;98091.91;;;13.91;100.00
10474;BME280;5284;50.446;7.904;2022-10-16T00:33:50;98096.09;;;13.86;100.00
10474;BME280;5284;50.446;7.904;2022-10-16T00:38:56;98074.31;;;13.81;100.00
10474;BME280;5284;50.446;7.904;2022-10-16T00:49:41;98094.88;;;13.73;100.00
10474;BME280;5284;50.446;7.904;2022-10-16T00:54:46;98093.69;;;13.75;100.00
10474;BME280;5284;50.446;7.904;2022-10-16T00:59:51;98110.78;;;13.74;100.00
10474;BME280;5284;50.446;7.904;2022-10-16T01:04:54;98129.03;;;13.71;100.00
10474;BME280;5284;50.446;7.904;2022-10-16T01:10:07;98125.50;;;13.70;100.00
10474;BME280;5284;50.446;7.904;2022-10-16T01:15:17;98105.06;;;13.69;100.00
10474;BME280;5284;50.446;7.904;2022-10-16T01:20:26;98103.56;;;13.67;100.00
10474;BME280;5284;50.446;7.904;2022-10-16T01:25:40;98120.78;;;13.64;100.00
10474;BME280;5284;50.446;7.904;2022-10-16T01:30:53;98127.19;;;13.71;100.00
10474;BME280;5284;50.446;7.904;2022-10-16T01:36:03;98124.34;;;13.73;100.00
10474;BME280;5284;50.446;7.904;2022-10-16T01:41:11;98123.50;;;13.72;100.00
10474;BME280;5284;50.446;7.904;2022-10-16T01:46:18;98121.00;;;13.71;100.00
10474;BME280;5284;50.446;7.904;2022-10-16T01:51:23;98104.56;;;13.66;100.00
10474;BME280;5284;50.446;7.904;2022-10-16T01:56:28;98109.72;;;13.59;100.00
10474;BME280;5284;50.446;7.904;2022-10-16T02:01:35;98124.25;;;13.57;100.00
10474;BME280;5284;50.446;7.904;2022-10-16T02:06:39;98117.38;;;13.54;100.00
10474;BME280;5284;50.446;7.904;2022-10-16T02:11:42;98107.00;;;13.51;100.00
10474;BME280;5284;50.446;7.904;2022-10-16T02:16:47;98130.25;;;13.51;100.00
10474;BME280;5284;50.446;7.904;2022-10-16T02:21:53;98149.69;;;13.53;100.00
10474;BME280;5284;50.446;7.904;2022-10-16T02:27:03;98144.53;;;13.59;100.00
10474;BME280;5284;50.446;7.904;2022-10-16T02:32:12;98152.13;;;13.64;100.00
10474;BME280;5284;50.446;7.904;2022-10-16T02:37:18;98152.78;;;13.66;100.00
10474;BME280;5284;50.446;7.904;2022-10-16T02:42:28;98168.19;;;13.64;100.00
10474;BME280;5284;50.446;7.904;2022-10-16T02:47:32;98173.84;;;13.61;100.00
10474;BME280;5284;50.446;7.904;2022-10-16T02:52:35;98168.66;;;13.59;100.00
10474;BME280;5284;50.446;7.904;2022-10-16T02:57:38;98165.13;;;13.59;100.00
10474;BME280;5284;50.446;7.904;2022-10-16T03:02:43;98147.53;;;13.56;100.00
10474;BME280;5284;50.446;7.904;2022-10-16T03:07:46;98133.28;;;13.56;100.00
10474;BME280;5284;50.446;7.904;2022-10-16T03:12:49;98167.13;;;13.57;100.00
10474;BME280;5284;50.446;7.904;2022-10-16T03:17:53;98150.38;;;13.55;100.00
10474;BME280;5284;50.446;7.904;2022-10-16T03:22:56;98146.00;;;13.54;100.00
10474;BME280;5284;50.446;7.904;2022-10-16T03:27:59;98136.47;;;13.51;100.00
10474;BME280;5284;50.446;7.904;2022-10-16T03:33:04;98149.19;;;13.49;100.00
10474;BME280;5284;50.446;7.904;2022-10-16T03:38:06;98174.59;;;13.45;100.00
10474;BME280;5284;50.446;7.904;2022-10-16T03:43:09;98164.03;;;13.44;100.00
10474;BME280;5284;50.446;7.904;2022-10-16T03:48:13;98172.69;;;13.38;100.00
10474;BME280;5284;50.446;7.904;2022-10-16T03:53:16;98180.88;;;13.36;100.00
10474;BME280;5284;50.446;7.904;2022-10-16T03:58:19;98199.81;;;13.35;100.00
10474;BME280;5284;50.446;7.904;2022-10-16T04:03:24;98196.44;;;13.33;100.00
10474;BME280;5284;50.446;7.904;2022-10-16T04:08:27;98201.25;;;13.29;100.00
10474;BME280;5284;50.446;7.904;2022-10-16T04:13:30;98218.19;;;13.30;100.00
10474;BME280;5284;50.446;7.904;2022-10-16T04:18:34;98194.53;;;13.25;100.00
10474;BME280;5284;50.446;7.904;2022-10-16T04:23:37;98200.88;;;13.24;100.00
10474;BME280;5284;50.446;7.904;2022-10-16T04:28:39;98199.19;;;13.23;100.00
10474;BME280;5284;50.446;7.904;2022-10-16T04:33:44;98201.03;;;13.23;100.00
10474;BME280;5284;50.446;7.904;2022-10-16T04:38:47;98200.34;;;13.21;100.00
10474;BME280;5284;50.446;7.904;2022-10-16T04:43:49;98216.88;;;13.16;100.00
10474;BME280;5284;50.446;7.904;2022-10-16T04:48:54;98221.09;;;13.19;100.00
10474;BME280;5284;50.446;7.904;2022-10-16T04:53:56;98219.56;;;13.16;100.00
10474;BME280;5284;50.446;7.904;2022-10-16T04:58:59;98186.91;;;13.13;100.00
10474;BME280;5284;50.446;7.904;2022-10-16T05:04:04;98224.25;;;13.14;100.00
10474;BME280;5284;50.446;7.904;2022-10-16T05:09:07;98231.28;;;13.15;100.00
10474;BME280;5284;50.446;7.904;2022-10-16T05:14:10;98233.97;;;13.15;100.00
10474;BME280;5284;50.446;7.904;2022-10-16T05:19:14;98230.41;;;13.15;100.00
10474;BME280;5284;50.446;7.904;2022-10-16T05:24:32;98242.13;;;13.14;100.00
10474;BME280;5284;50.446;7.904;2022-10-16T05:29:35;98245.50;;;13.16;100.00
10474;BME280;5284;50.446;7.904;2022-10-16T05:34:39;98232.41;;;13.13;100.00
10474;BME280;5284;50.446;7.904;2022-10-16T05:39:42;98231.59;;;13.12;100.00
10474;BME280;5284;50.446;7.904;2022-10-16T05:44:45;98238.63;;;13.13;100.00
10474;BME280;5284;50.446;7.904;2022-10-16T05:49:49;98229.72;;;13.13;100.00
10474;BME280;5284;50.446;7.904;2022-10-16T05:54:52;98234.09;;;13.14;100.00
10474;BME280;5284;50.446;7.904;2022-10-16T05:59:55;98257.19;;;13.15;100.00
10474;BME280;5284;50.446;7.904;2022-10-16T06:04:59;98261.56;;;13.16;100.00
10474;BME280;5284;50.446;7.904;2022-10-16T06:10:03;98265.41;;;13.13;100.00
10474;BME280;5284;50.446;7.904;2022-10-16T06:15:07;98270.06;;;13.11;100.00
10474;BME280;5284;50.446;7.904;2022-10-16T06:20:12;98278.53;;;13.07;100.00
10474;BME280;5284;50.446;7.904;2022-10-16T06:25:15;98273.03;;;13.08;100.00
10474;BME280;5284;50.446;7.904;2022-10-16T06:30:17;98266.53;;;13.11;100.00
10474;BME280;5284;50.446;7.904;2022-10-16T06:35:22;98281.47;;;13.13;100.00
10474;BME280;5284;50.446;7.904;2022-10-16T06:40:25;98275.25;;;13.13;100.00
10474;BME280;5284;50.446;7.904;2022-10-16T06:45:28;98272.13;;;13.17;100.00
10474;BME280;5284;50.446;7.904;2022-10-16T06:50:32;98278.00;;;13.21;100.00
10474;BME280;5284;50.446;7.904;2022-10-16T06:55:35;98298.13;;;13.25;100.00
10474;BME280;5284;50.446;7.904;2022-10-16T07:00:37;98315.97;;;13.34;100.00
10474;BME280;5284;50.446;7.904;2022-10-16T07:05:42;98323.91;;;13.43;100.00
10474;BME280;5284;50.446;7.904;2022-10-16T07:10:45;98328.00;;;13.47;100.00
10474;BME280;5284;50.446;7.904;2022-10-16T07:15:48;98349.25;;;13.49;100.00
10474;BME280;5284;50.446;7.904;2022-10-16T07:20:52;98354.63;;;13.49;100.00
10474;BME280;5284;50.446;7.904;2022-10-16T07:25:56;98367.88;;;13.50;100.00
10474;BME280;5284;50.446;7.904;2022-10-16T07:31:00;98362.41;;;13.60;100.00
10474;BME280;5284;50.446;7.904;2022-10-16T07:36:05;98370.94;;;13.73;100.00
10474;BME280;5284;50.446;7.904;2022-10-16T07:41:14;98372.53;;;13.83;100.00
10474;BME280;5284;50.446;7.904;2022-10-16T07:46:19;98387.63;;;13.84;100.00
10474;BME280;5284;50.446;7.904;2022-10-16T07:51:25;98391.97;;;14.02;100.00
10474;BME280;5284;50.446;7.904;2022-10-16T07:56:30;98401.84;;;14.19;100.00
10474;BME280;5284;50.446;7.904;2022-10-16T08:01:33;98414.25;;;14.20;100.00
10474;BME280;5284;50.446;7.904;2022-10-16T08:06:39;98405.97;;;14.31;100.00
10474;BME280;5284;50.446;7.904;2022-10-16T08:11:42;98402.16;;;14.42;100.00
10474;BME280;5284;50.446;7.904;2022-10-16T08:16:45;98411.97;;;14.51;100.00
10474;BME280;5284;50.446;7.904;2022-10-16T08:21:50;98430.53;;;14.70;100.00
10474;BME280;5284;50.446;7.904;2022-10-16T08:26:53;98436.50;;;14.89;100.00
10474;BME280;5284;50.446;7.904;2022-10-16T08:31:56;98443.03;;;15.12;100.00
10474;BME280;5284;50.446;7.904;2022-10-16T08:37:00;98454.38;;;15.32;100.00
10474;BME280;5284;50.446;7.904;2022-10-16T08:42:23;98457.66;;;15.51;100.00
10474;BME280;5284;50.446;7.904;2022-10-16T08:47:42;98458.06;;;15.80;100.00
10474;BME280;5284;50.446;7.904;2022-10-16T08:52:48;98463.97;;;15.91;100.00
10474;BME280;5284;50.446;7.904;2022-10-16T08:57:51;98487.06;;;16.10;100.00
10474;BME280;5284;50.446;7.904;2022-10-16T09:03:02;98482.97;;;15.90;100.00
10474;BME280;5284;50.446;7.904;2022-10-16T09:08:14;98495.78;;;16.12;100.00
10474;BME280;5284;50.446;7.904;2022-10-16T09:13:26;98495.78;;;16.12;100.00
10474;BME280;5284;50.446;7.904;2022-10-16T09:18:34;98505.88;;;16.10;100.00
10474;BME280;5284;50.446;7.904;2022-10-16T09:23:41;98511.94;;;16.20;100.00
10474;BME280;5284;50.446;7.904;2022-10-16T09:28:44;98496.34;;;16.47;100.00
10474;BME280;5284;50.446;7.904;2022-10-16T09:33:50;98517.06;;;16.79;100.00
10474;BME280;5284;50.446;7.904;2022-10-16T09:39:04;98516.38;;;16.77;100.00
10474;BME280;5284;50.446;7.904;2022-10-16T09:44:18;98519.41;;;16.82;100.00
10474;BME280;5284;50.446;7.904;2022-10-16T09:49:25;98523.63;;;16.60;100.00
10474;BME280;5284;50.446;7.904;2022-10-16T09:54:29;98529.00;;;16.44;100.00
10474;BME280;5284;50.446;7.904;2022-10-16T09:59:32;98536.41;;;16.74;100.00
10474;BME280;5284;50.446;7.904;2022-10-16T10:04:40;98522.25;;;17.04;100.00
10474;BME280;5284;50.446;7.904;2022-10-16T10:09:45;98525.13;;;17.02;100.00
10474;BME280;5284;50.446;7.904;2022-10-16T10:14:50;98526.63;;;16.97;100.00
10474;BME280;5284;50.446;7.904;2022-10-16T10:19:55;98543.66;;;16.82;100.00
10474;BME280;5284;50.446;7.904;2022-10-16T10:25:36;98536.69;;;17.11;100.00
10474;BME280;5284;50.446;7.904;2022-10-16T10:30:44;98526.75;;;17.19;100.00
10474;BME280;5284;50.446;7.904;2022-10-16T10:35:56;98528.56;;;17.43;100.00
10474;BME280;5284;50.446;7.904;2022-10-16T10:41:17;98530.03;;;18.75;100.00
10474;BME280;5284;50.446;7.904;2022-10-16T10:46:32;98528.50;;;19.32;98.20
10474;BME280;5284;50.446;7.904;2022-10-16T10:51:44;98523.00;;;18.88;100.00
10474;BME280;5284;50.446;7.904;2022-10-16T10:56:58;98527.22;;;18.68;100.00
10474;BME280;5284;50.446;7.904;2022-10-16T11:02:10;98519.91;;;18.77;100.00
10474;BME280;5284;50.446;7.904;2022-10-16T11:07:19;98514.59;;;19.78;100.00
10474;BME280;5284;50.446;7.904;2022-10-16T11:12:27;98519.56;;;19.75;98.14
10474;BME280;5284;50.446;7.904;2022-10-16T11:17:35;98504.44;;;19.37;100.00
10474;BME280;5284;50.446;7.904;2022-10-16T11:22:44;98519.75;;;20.23;99.09
10474;BME280;5284;50.446;7.904;2022-10-16T11:27:55;98516.28;;;20.85;92.97
10474;BME280;5284;50.446;7.904;2022-10-16T11:33:20;98531.59;;;19.58;95.85
10474;BME280;5284;50.446;7.904;2022-10-16T11:38:29;98520.63;;;19.08;99.71
10474;BME280;5284;50.446;7.904;2022-10-16T11:43:41;98532.38;;;19.15;99.40
10474;BME280;5284;50.446;7.904;2022-10-16T11:48:49;98523.97;;;19.10;100.00
10474;BME280;5284;50.446;7.904;2022-10-16T11:53:58;98530.28;;;19.68;98.16
10474;BME280;5284;50.446;7.904;2022-10-16T11:59:07;98528.50;;;20.04;95.58
10474;BME280;5284;50.446;7.904;2022-10-16T12:04:23;98527.56;;;21.44;94.82
10474;BME280;5284;50.446;7.904;2022-10-16T12:09:32;98533.50;;;20.99;91.42
10474;BME280;5284;50.446;7.904;2022-10-16T12:14:39;98530.91;;;20.70;95.76
10474;BME280;5284;50.446;7.904;2022-10-16T12:20:20;98530.66;;;20.86;94.01
10474;BME280;5284;50.446;7.904;2022-10-16T12:25:26;98530.88;;;20.28;96.56
10474;BME280;5284;50.446;7.904;2022-10-16T12:30:33;98537.16;;;20.14;97.70
10474;BME280;5284;50.446;7.904;2022-10-16T12:35:43;98534.84;;;20.46;96.81
10474;BME280;5284;50.446;7.904;2022-10-16T12:40:56;98537.81;;;20.16;97.94
10474;BME280;5284;50.446;7.904;2022-10-16T12:46:04;98544.75;;;20.04;100.00
10474;BME280;5284;50.446;7.904;2022-10-16T12:51:11;98536.47;;;20.83;95.54
10474;BME280;5284;50.446;7.904;2022-10-16T12:56:20;98525.72;;;20.75;95.06
10474;BME280;5284;50.446;7.904;2022-10-16T13:01:36;98536.91;;;19.80;98.88
10474;BME280;5284;50.446;7.904;2022-10-16T13:06:48;98549.88;;;19.85;100.00
10474;BME280;5284;50.446;7.904;2022-10-16T13:12:15;98553.06;;;19.59;100.00
10474;BME280;5284;50.446;7.904;2022-10-16T13:17:29;98556.53;;;19.16;100.00
10474;BME280;5284;50.446;7.904;2022-10-16T13:22:41;98560.00;;;18.88;100.00
10474;BME280;5284;50.446;7.904;2022-10-16T13:27:54;98557.34;;;19.02;100.00
10474;BME280;5284;50.446;7.904;2022-10-16T13:33:01;98579.59;;;18.67;100.00
10474;BME280;5284;50.446;7.904;2022-10-16T13:38:09;98565.53;;;18.94;100.00
10474;BME280;5284;50.446;7.904;2022-10-16T13:43:13;98551.44;;;19.36;100.00
10474;BME280;5284;50.446;7.904;2022-10-16T13:48:17;98553.59;;;19.40;100.00
10474;BME280;5284;50.446;7.904;2022-10-16T13:53:20;98558.38;;;19.82;100.00
10474;BME280;5284;50.446;7.904;2022-10-16T13:58:23;98554.06;;;20.02;100.00
10474;BME280;5284;50.446;7.904;2022-10-16T14:03:28;98555.88;;;20.44;97.30
10474;BME280;5284;50.446;7.904;2022-10-16T14:08:32;98563.56;;;19.98;96.59
10474;BME280;5284;50.446;7.904;2022-10-16T14:13:37;98547.28;;;19.62;100.00
10474;BME280;5284;50.446;7.904;2022-10-16T14:18:45;98548.22;;;19.69;99.74
10474;BME280;5284;50.446;7.904;2022-10-16T14:23:49;98547.72;;;19.66;100.00
10474;BME280;5284;50.446;7.904;2022-10-16T14:29:08;98548.47;;;19.60;100.00
10474;BME280;5284;50.446;7.904;2022-10-16T14:34:29;98548.94;;;19.49;100.00
10474;BME280;5284;50.446;7.904;2022-10-16T14:39:34;98558.91;;;19.34;100.00
10474;BME280;5284;50.446;7.904;2022-10-16T14:44:39;98562.53;;;19.04;100.00
10474;BME280;5284;50.446;7.904;2022-10-16T14:49:43;98555.13;;;19.06;100.00
10474;BME280;5284;50.446;7.904;2022-10-16T14:54:48;98564.22;;;19.05;100.00
10474;BME280;5284;50.446;7.904;2022-10-16T14:59:51;98567.16;;;18.81;100.00
10474;BME280;5284;50.446;7.904;2022-10-16T15:04:56;98565.06;;;18.68;100.00
10474;BME280;5284;50.446;7.904;2022-10-16T15:09:59;98560.91;;;18.58;100.00
10474;BME280;5284;50.446;7.904;2022-10-16T15:15:23;98566.13;;;18.59;100.00
10474;BME280;5284;50.446;7.904;2022-10-16T15:20:30;98584.00;;;18.38;100.00
10474;BME280;5284;50.446;7.904;2022-10-16T15:25:38;98574.03;;;18.61;100.00
10474;BME280;5284;50.446;7.904;2022-10-16T15:30:42;98570.38;;;18.54;100.00
10474;BME280;5284;50.446;7.904;2022-10-16T15:35:48;98573.53;;;18.35;100.00
10474;BME280;5284;50.446;7.904;2022-10-16T15:40:51;98573.31;;;18.14;100.00
10474;BME280;5284;50.446;7.904;2022-10-16T15:46:00;98577.31;;;17.80;100.00
10474;BME280;5284;50.446;7.904;2022-10-16T15:51:06;98566.41;;;17.65;100.00
10474;BME280;5284;50.446;7.904;2022-10-16T15:56:10;98568.47;;;17.55;100.00
10474;BME280;5284;50.446;7.904;2022-10-16T16:01:13;98573.59;;;17.42;100.00
10474;BME280;5284;50.446;7.904;2022-10-16T16:06:17;98572.75;;;17.34;100.00
10474;BME280;5284;50.446;7.904;2022-10-16T16:11:20;98572.06;;;17.24;100.00
10474;BME280;5284;50.446;7.904;2022-10-16T16:16:26;98573.41;;;17.12;100.00
10474;BME280;5284;50.446;7.904;2022-10-16T16:21:31;98572.44;;;17.05;100.00
10474;BME280;5284;50.446;7.904;2022-10-16T16:26:35;98575.63;;;17.00;100.00
10474;BME280;5284;50.446;7.904;2022-10-16T16:31:41;98575.28;;;16.95;100.00
10474;BME280;5284;50.446;7.904;2022-10-16T16:36:46;98585.75;;;16.90;100.00
10474;BME280;5284;50.446;7.904;2022-10-16T16:41:50;98576.66;;;16.84;100.00
10474;BME280;5284;50.446;7.904;2022-10-16T16:46:53;98581.72;;;16.79;100.00
10474;BME280;5284;50.446;7.904;2022-10-16T16:52:03;98593.66;;;16.76;100.00
10474;BME280;5284;50.446;7.904;2022-10-16T16:57:05;98609.31;;;16.73;100.00
10474;BME280;5284;50.446;7.904;2022-10-16T17:02:09;98616.19;;;16.67;100.00
10474;BME280;5284;50.446;7.904;2022-10-16T17:07:13;98614.84;;;16.63;100.00
10474;BME280;5284;50.446;7.904;2022-10-16T17:12:17;98614.66;;;16.57;100.00
10474;BME280;5284;50.446;7.904;2022-10-16T17:17:20;98624.75;;;16.55;100.00
10474;BME280;5284;50.446;7.904;2022-10-16T17:22:24;98622.25;;;16.53;100.00
10474;BME280;5284;50.446;7.904;2022-10-16T17:27:28;98619.91;;;16.50;100.00
10474;BME280;5284;50.446;7.904;2022-10-16T17:32:31;98625.91;;;16.44;100.00
10474;BME280;5284;50.446;7.904;2022-10-16T17:37:35;98629.44;;;16.37;100.00
10474;BME280;5284;50.446;7.904;2022-10-16T17:42:37;98638.13;;;16.31;100.00
10474;BME280;5284;50.446;7.904;2022-10-16T17:47:40;98636.09;;;16.25;100.00
10474;BME280;5284;50.446;7.904;2022-10-16T17:52:45;98635.75;;;16.20;100.00
10474;BME280;5284;50.446;7.904;2022-10-16T17:57:47;98636.41;;;16.14;100.00
10474;BME280;5284;50.446;7.904;2022-10-16T18:02:50;98641.25;;;16.10;100.00
10474;BME280;5284;50.446;7.904;2022-10-16T18:07:56;98654.19;;;16.07;100.00
10474;BME280;5284;50.446;7.904;2022-10-16T18:12:59;98661.25;;;16.00;100.00
10474;BME280;5284;50.446;7.904;2022-10-16T18:18:02;98652.09;;;15.93;100.00
10474;BME280;5284;50.446;7.904;2022-10-16T18:23:06;98661.81;;;15.86;100.00
10474;BME280;5284;50.446;7.904;2022-10-16T18:28:09;98658.09;;;15.79;100.00
10474;BME280;5284;50.446;7.904;2022-10-16T18:33:13;98667.81;;;15.72;100.00
10474;BME280;5284;50.446;7.904;2022-10-16T18:38:17;98659.22;;;15.68;100.00
10474;BME280;5284;50.446;7.904;2022-10-16T18:43:21;98666.06;;;15.63;100.00
10474;BME280;5284;50.446;7.904;2022-10-16T18:48:23;98676.97;;;15.61;100.00
10474;BME280;5284;50.446;7.904;2022-10-16T18:53:28;98674.94;;;15.55;100.00
10474;BME280;5284;50.446;7.904;2022-10-16T18:58:30;98676.56;;;15.48;100.00
10474;BME280;5284;50.446;7.904;2022-10-16T19:03:35;98681.53;;;15.43;100.00
10474;BME280;5284;50.446;7.904;2022-10-16T19:08:41;98685.19;;;15.34;100.00
10474;BME280;5284;50.446;7.904;2022-10-16T19:13:45;98691.72;;;15.32;100.00
10474;BME280;5284;50.446;7.904;2022-10-16T19:18:51;98689.59;;;15.26;100.00
10474;BME280;5284;50.446;7.904;2022-10-16T19:23:57;98699.97;;;15.21;100.00
10474;BME280;5284;50.446;7.904;2022-10-16T19:29:02;98690.47;;;15.27;100.00
10474;BME280;5284;50.446;7.904;2022-10-16T19:34:05;98698.00;;;15.23;100.00
10474;BME280;5284;50.446;7.904;2022-10-16T19:39:12;98698.16;;;15.22;100.00
10474;BME280;5284;50.446;7.904;2022-10-16T19:44:16;98712.41;;;15.22;100.00
10474;BME280;5284;50.446;7.904;2022-10-16T19:49:19;98710.91;;;15.20;100.00
10474;BME280;5284;50.446;7.904;2022-10-16T19:54:23;98703.97;;;15.17;100.00
10474;BME280;5284;50.446;7.904;2022-10-16T19:59:27;98708.66;;;15.15;100.00
10474;BME280;5284;50.446;7.904;2022-10-16T20:04:30;98708.13;;;15.12;100.00
10474;BME280;5284;50.446;7.904;2022-10-16T20:09:34;98708.59;;;15.07;100.00
10474;BME280;5284;50.446;7.904;2022-10-16T20:14:36;98713.28;;;15.05;100.00
10474;BME280;5284;50.446;7.904;2022-10-16T20:19:40;98717.97;;;15.03;100.00
10474;BME280;5284;50.446;7.904;2022-10-16T20:24:44;98718.97;;;15.02;100.00
10474;BME280;5284;50.446;7.904;2022-10-16T20:29:47;98721.13;;;14.99;100.00
10474;BME280;5284;50.446;7.904;2022-10-16T20:34:49;98720.88;;;14.92;100.00
10474;BME280;5284;50.446;7.904;2022-10-16T20:39:53;98723.03;;;14.89;100.00
10474;BME280;5284;50.446;7.904;2022-10-16T20:44:57;98716.81;;;14.88;100.00
10474;BME280;5284;50.446;7.904;2022-10-16T20:49:59;98720.78;;;14.84;100.00
10474;BME280;5284;50.446;7.904;2022-10-16T20:55:05;98724.09;;;14.78;100.00
10474;BME280;5284;50.446;7.904;2022-10-16T21:00:08;98725.69;;;14.71;100.00
10474;BME280;5284;50.446;7.904;2022-10-16T21:05:11;98722.94;;;14.63;100.00
10474;BME280;5284;50.446;7.904;2022-10-16T21:10:16;98729.06;;;14.56;100.00
10474;BME280;5284;50.446;7.904;2022-10-16T21:15:19;98725.97;;;14.51;100.00
10474;BME280;5284;50.446;7.904;2022-10-16T21:20:22;98720.34;;;14.44;100.00
10474;BME280;5284;50.446;7.904;2022-10-16T21:25:26;98721.78;;;14.39;100.00
10474;BME280;5284;50.446;7.904;2022-10-16T21:30:30;98718.56;;;14.35;100.00
10474;BME280;5284;50.446;7.904;2022-10-16T21:35:33;98713.81;;;14.29;100.00
10474;BME280;5284;50.446;7.904;2022-10-16T21:40:37;98720.16;;;14.28;100.00
10474;BME280;5284;50.446;7.904;2022-10-16T21:45:40;98716.63;;;14.28;100.00
10474;BME280;5284;50.446;7.904;2022-10-16T21:50:46;98724.28;;;14.23;100.00
10474;BME280;5284;50.446;7.904;2022-10-16T21:55:50;98714.00;;;14.18;100.00
10474;BME280;5284;50.446;7.904;2022-10-16T22:00:53;98720.50;;;14.16;100.00
10474;BME280;5284;50.446;7.904;2022-10-16T22:05:59;98726.28;;;14.11;100.00
10474;BME280;5284;50.446;7.904;2022-10-16T22:11:10;98728.56;;;14.06;100.00
10474;BME280;5284;50.446;7.904;2022-10-16T22:16:14;98725.63;;;14.00;100.00
10474;BME280;5284;50.446;7.904;2022-10-16T22:21:17;98731.44;;;13.95;100.00
10474;BME280;5284;50.446;7.904;2022-10-16T22:26:22;98730.72;;;13.93;100.00
10474;BME280;5284;50.446;7.904;2022-10-16T22:31:25;98735.13;;;13.85;100.00
10474;BME280;5284;50.446;7.904;2022-10-16T22:36:28;98741.22;;;13.77;100.00
10474;BME280;5284;50.446;7.904;2022-10-16T22:41:32;98739.81;;;13.73;100.00
10474;BME280;5284;50.446;7.904;2022-10-16T22:46:35;98739.00;;;13.64;100.00
10474;BME280;5284;50.446;7.904;2022-10-16T22:51:38;98746.34;;;13.62;100.00
10474;BME280;5284;50.446;7.904;2022-10-16T22:56:42;98749.59;;;13.56;100.00
10474;BME280;5284;50.446;7.904;2022-10-16T23:01:45;98748.88;;;13.54;100.00
10474;BME280;5284;50.446;7.904;2022-10-16T23:06:48;98753.81;;;13.58;100.00
10474;BME280;5284;50.446;7.904;2022-10-16T23:11:52;98756.50;;;13.58;100.00
10474;BME280;5284;50.446;7.904;2022-10-16T23:16:54;98763.84;;;13.56;100.00
10474;BME280;5284;50.446;7.904;2022-10-16T23:21:57;98756.91;;;13.54;100.00
10474;BME280;5284;50.446;7.904;2022-10-16T23:27:01;98762.28;;;13.54;100.00
10474;BME280;5284;50.446;7.904;2022-10-16T23:32:04;98759.59;;;13.54;100.00
10474;BME280;5284;50.446;7.904;2022-10-16T23:37:07;98758.78;;;13.53;100.00
10474;BME280;5284;50.446;7.904;2022-10-16T23:42:11;98759.88;;;13.51;100.00
10474;BME280;5284;50.446;7.904;2022-10-16T23:47:13;98759.19;;;13.49;100.00
10474;BME280;5284;50.446;7.904;2022-10-16T23:52:16;98765.69;;;13.46;100.00
10474;BME280;5284;50.446;7.904;2022-10-16T23:57:20;98768.78;;;13.42;100.00
